sensor_id;sensor_type;location;lat;lon;timestamp;P1;durP1;ratioP1;P2;durP2;ratioP2
38479;SDS011;62333;51.980;5.934;2023-11-18T00:01:23;17.05;;;11.02;;
38479;SDS011;62333;51.980;5.934;2023-11-18T00:03:49;17.58;;;10.23;;
38479;SDS011;62333;51.980;5.934;2023-11-18T00:06:15;17.30;;;11.18;;
38479;SDS011;62333;51.980;5.934;2023-11-18T00:08:41;20.48;;;13.32;;
38479;SDS011;62333;51.980;5.934;2023-11-18T00:11:07;20.02;;;10.15;;
38479;SDS011;62333;51.980;5.934;2023-11-18T00:13:34;19.63;;;11.52;;
38479;SDS011;62333;51.980;5.934;2023-11-18T00:15:59;19.00;;;11.20;;
38479;SDS011;62333;51.980;5.934;2023-11-18T00:18:25;16.48;;;10.35;;
38479;SDS011;62333;51.980;5.934;2023-11-18T00:20:50;16.02;;;11.50;;
38479;SDS011;62333;51.980;5.934;2023-11-18T00:23:17;16.00;;;9.70;;
38479;SDS011;62333;51.980;5.934;2023-11-18T00:25:43;18.33;;;12.63;;
38479;SDS011;62333;51.980;5.934;2023-11-18T00:28:10;18.02;;;11.07;;
38479;SDS011;62333;51.980;5.934;2023-11-18T00:30:36;22.88;;;10.52;;
38479;SDS011;62333;51.980;5.934;2023-11-18T00:33:02;14.57;;;9.93;;
38479;SDS011;62333;51.980;5.934;2023-11-18T00:35:28;19.73;;;11.32;;
38479;SDS011;62333;51.980;5.934;2023-11-18T00:37:57;18.73;;;11.38;;
38479;SDS011;62333;51.980;5.934;2023-11-18T00:40:23;17.80;;;11.80;;
38479;SDS011;62333;51.980;5.934;2023-11-18T00:42:49;14.82;;;11.27;;
38479;SDS011;62333;51.980;5.934;2023-11-18T00:45:15;16.38;;;10.48;;
38479;SDS011;62333;51.980;5.934;2023-11-18T00:47:41;16.38;;;10.02;;
38479;SDS011;62333;51.980;5.934;2023-11-18T00:50:06;18.27;;;10.77;;
38479;SDS011;62333;51.980;5.934;2023-11-18T00:52:35;15.07;;;9.50;;
38479;SDS011;62333;51.980;5.934;2023-11-18T00:55:04;17.45;;;11.88;;
38479;SDS011;62333;51.980;5.934;2023-11-18T00:57:31;16.20;;;11.07;;
38479;SDS011;62333;51.980;5.934;2023-11-18T00:59:57;17.17;;;10.93;;
38479;SDS011;62333;51.980;5.934;2023-11-18T01:02:23;16.95;;;10.65;;
38479;SDS011;62333;51.980;5.934;2023-11-18T01:04:49;19.30;;;13.23;;
38479;SDS011;62333;51.980;5.934;2023-11-18T01:07:15;15.57;;;10.10;;
38479;SDS011;62333;51.980;5.934;2023-11-18T01:09:41;16.90;;;9.82;;
38479;SDS011;62333;51.980;5.934;2023-11-18T01:12:07;15.02;;;10.77;;
38479;SDS011;62333;51.980;5.934;2023-11-18T01:14:37;17.67;;;10.48;;
38479;SDS011;62333;51.980;5.934;2023-11-18T01:17:04;16.42;;;11.43;;
38479;SDS011;62333;51.980;5.934;2023-11-18T01:19:31;17.98;;;11.48;;
38479;SDS011;62333;51.980;5.934;2023-11-18T01:21:57;19.35;;;11.68;;
38479;SDS011;62333;51.980;5.934;2023-11-18T01:24:22;17.50;;;10.43;;
38479;SDS011;62333;51.980;5.934;2023-11-18T01:26:48;18.73;;;12.13;;
38479;SDS011;62333;51.980;5.934;2023-11-18T01:29:13;15.27;;;9.88;;
38479;SDS011;62333;51.980;5.934;2023-11-18T01:31:39;20.50;;;11.32;;
38479;SDS011;62333;51.980;5.934;2023-11-18T01:34:06;14.85;;;9.45;;
38479;SDS011;62333;51.980;5.934;2023-11-18T01:36:32;16.50;;;10.82;;
38479;SDS011;62333;51.980;5.934;2023-11-18T01:38:58;18.05;;;10.40;;
38479;SDS011;62333;51.980;5.934;2023-11-18T01:41:24;18.13;;;11.35;;
38479;SDS011;62333;51.980;5.934;2023-11-18T01:43:50;17.60;;;11.20;;
38479;SDS011;62333;51.980;5.934;2023-11-18T01:46:15;19.00;;;11.52;;
38479;SDS011;62333;51.980;5.934;2023-11-18T01:48:42;19.20;;;11.82;;
38479;SDS011;62333;51.980;5.934;2023-11-18T01:51:08;15.60;;;10.02;;
38479;SDS011;62333;51.980;5.934;2023-11-18T01:53:36;16.10;;;10.75;;
38479;SDS011;62333;51.980;5.934;2023-11-18T01:56:05;15.13;;;8.80;;
38479;SDS011;62333;51.980;5.934;2023-11-18T01:58:32;16.33;;;10.57;;
38479;SDS011;62333;51.980;5.934;2023-11-18T02:01:00;16.33;;;10.15;;
38479;SDS011;62333;51.980;5.934;2023-11-18T02:03:27;16.33;;;11.25;;
38479;SDS011;62333;51.980;5.934;2023-11-18T02:05:53;16.00;;;8.75;;
38479;SDS011;62333;51.980;5.934;2023-11-18T02:08:19;13.23;;;9.25;;
38479;SDS011;62333;51.980;5.934;2023-11-18T02:10:49;14.38;;;9.32;;
38479;SDS011;62333;51.980;5.934;2023-11-18T02:13:32;15.82;;;10.43;;
38479;SDS011;62333;51.980;5.934;2023-11-18T02:16:01;18.13;;;11.20;;
38479;SDS011;62333;51.980;5.934;2023-11-18T02:18:32;17.07;;;10.70;;
38479;SDS011;62333;51.980;5.934;2023-11-18T02:20:58;17.45;;;10.77;;
38479;SDS011;62333;51.980;5.934;2023-11-18T02:23:27;16.00;;;9.93;;
38479;SDS011;62333;51.980;5.934;2023-11-18T02:25:53;19.30;;;12.93;;
38479;SDS011;62333;51.980;5.934;2023-11-18T02:28:20;19.60;;;10.75;;
38479;SDS011;62333;51.980;5.934;2023-11-18T02:30:47;19.05;;;11.02;;
38479;SDS011;62333;51.980;5.934;2023-11-18T02:33:16;19.25;;;12.30;;
38479;SDS011;62333;51.980;5.934;2023-11-18T02:38:22;22.10;;;14.35;;
38479;SDS011;62333;51.980;5.934;2023-11-18T02:40:51;24.08;;;13.88;;
38479;SDS011;62333;51.980;5.934;2023-11-18T02:43:21;24.60;;;14.90;;
38479;SDS011;62333;51.980;5.934;2023-11-18T02:45:49;25.80;;;15.20;;
38479;SDS011;62333;51.980;5.934;2023-11-18T02:48:16;30.67;;;15.40;;
38479;SDS011;62333;51.980;5.934;2023-11-18T02:50:43;24.15;;;13.80;;
38479;SDS011;62333;51.980;5.934;2023-11-18T02:53:08;26.30;;;14.38;;
38479;SDS011;62333;51.980;5.934;2023-11-18T02:55:34;17.83;;;10.57;;
38479;SDS011;62333;51.980;5.934;2023-11-18T02:58:00;30.40;;;14.68;;
38479;SDS011;62333;51.980;5.934;2023-11-18T03:00:27;27.58;;;14.90;;
38479;SDS011;62333;51.980;5.934;2023-11-18T03:02:53;23.33;;;13.82;;
38479;SDS011;62333;51.980;5.934;2023-11-18T03:05:19;21.30;;;12.18;;
38479;SDS011;62333;51.980;5.934;2023-11-18T03:07:46;23.30;;;13.93;;
38479;SDS011;62333;51.980;5.934;2023-11-18T03:10:18;23.15;;;13.95;;
38479;SDS011;62333;51.980;5.934;2023-11-18T03:12:50;29.40;;;15.77;;
38479;SDS011;62333;51.980;5.934;2023-11-18T03:15:21;22.13;;;13.75;;
38479;SDS011;62333;51.980;5.934;2023-11-18T03:17:47;23.75;;;14.57;;
38479;SDS011;62333;51.980;5.934;2023-11-18T03:20:21;23.65;;;13.82;;
38479;SDS011;62333;51.980;5.934;2023-11-18T03:22:48;23.13;;;13.85;;
38479;SDS011;62333;51.980;5.934;2023-11-18T03:25:15;23.15;;;13.10;;
38479;SDS011;62333;51.980;5.934;2023-11-18T03:27:42;24.63;;;15.45;;
38479;SDS011;62333;51.980;5.934;2023-11-18T03:30:09;25.63;;;15.23;;
38479;SDS011;62333;51.980;5.934;2023-11-18T03:32:35;26.98;;;15.88;;
38479;SDS011;62333;51.980;5.934;2023-11-18T03:35:02;23.77;;;15.32;;
38479;SDS011;62333;51.980;5.934;2023-11-18T03:37:29;26.33;;;15.30;;
38479;SDS011;62333;51.980;5.934;2023-11-18T03:39:55;24.85;;;13.77;;
38479;SDS011;62333;51.980;5.934;2023-11-18T03:42:20;21.42;;;12.80;;
38479;SDS011;62333;51.980;5.934;2023-11-18T03:44:47;23.92;;;13.90;;
38479;SDS011;62333;51.980;5.934;2023-11-18T03:47:13;23.17;;;13.57;;
38479;SDS011;62333;51.980;5.934;2023-11-18T03:49:39;24.73;;;14.68;;
38479;SDS011;62333;51.980;5.934;2023-11-18T03:52:05;26.90;;;12.68;;
38479;SDS011;62333;51.980;5.934;2023-11-18T03:54:31;26.42;;;15.73;;
38479;SDS011;62333;51.980;5.934;2023-11-18T03:56:57;26.10;;;13.45;;
38479;SDS011;62333;51.980;5.934;2023-11-18T03:59:23;22.77;;;13.55;;
38479;SDS011;62333;51.980;5.934;2023-11-18T04:01:48;22.90;;;12.95;;
38479;SDS011;62333;51.980;5.934;2023-11-18T04:04:16;25.98;;;15.40;;
38479;SDS011;62333;51.980;5.934;2023-11-18T04:06:42;21.90;;;14.93;;
38479;SDS011;62333;51.980;5.934;2023-11-18T04:09:08;28.20;;;13.48;;
38479;SDS011;62333;51.980;5.934;2023-11-18T04:11:35;24.40;;;14.35;;
38479;SDS011;62333;51.980;5.934;2023-11-18T04:14:01;23.75;;;13.23;;
38479;SDS011;62333;51.980;5.934;2023-11-18T04:16:28;21.98;;;13.10;;
38479;SDS011;62333;51.980;5.934;2023-11-18T04:18:54;20.52;;;12.82;;
38479;SDS011;62333;51.980;5.934;2023-11-18T04:21:20;34.05;;;18.52;;
38479;SDS011;62333;51.980;5.934;2023-11-18T04:23:46;26.45;;;16.65;;
38479;SDS011;62333;51.980;5.934;2023-11-18T04:26:12;22.67;;;14.23;;
38479;SDS011;62333;51.980;5.934;2023-11-18T04:28:38;22.88;;;14.05;;
38479;SDS011;62333;51.980;5.934;2023-11-18T04:31:04;27.17;;;16.73;;
38479;SDS011;62333;51.980;5.934;2023-11-18T04:33:30;26.23;;;16.67;;
38479;SDS011;62333;51.980;5.934;2023-11-18T04:35:56;25.95;;;15.98;;
38479;SDS011;62333;51.980;5.934;2023-11-18T04:38:25;22.77;;;13.20;;
38479;SDS011;62333;51.980;5.934;2023-11-18T04:40:54;21.50;;;14.07;;
38479;SDS011;62333;51.980;5.934;2023-11-18T04:43:20;22.02;;;12.95;;
38479;SDS011;62333;51.980;5.934;2023-11-18T04:45:49;36.35;;;21.45;;
38479;SDS011;62333;51.980;5.934;2023-11-18T04:48:15;30.38;;;17.63;;
38479;SDS011;62333;51.980;5.934;2023-11-18T04:50:41;27.30;;;17.17;;
38479;SDS011;62333;51.980;5.934;2023-11-18T04:53:08;22.65;;;13.10;;
38479;SDS011;62333;51.980;5.934;2023-11-18T04:55:35;18.90;;;13.98;;
38479;SDS011;62333;51.980;5.934;2023-11-18T04:58:01;24.58;;;15.35;;
38479;SDS011;62333;51.980;5.934;2023-11-18T05:00:27;23.50;;;14.27;;
38479;SDS011;62333;51.980;5.934;2023-11-18T05:02:54;20.02;;;13.05;;
38479;SDS011;62333;51.980;5.934;2023-11-18T05:05:20;28.30;;;16.75;;
38479;SDS011;62333;51.980;5.934;2023-11-18T05:07:47;28.48;;;16.65;;
38479;SDS011;62333;51.980;5.934;2023-11-18T05:10:12;22.08;;;14.27;;
38479;SDS011;62333;51.980;5.934;2023-11-18T05:12:38;24.90;;;14.95;;
38479;SDS011;62333;51.980;5.934;2023-11-18T05:15:09;27.30;;;14.55;;
38479;SDS011;62333;51.980;5.934;2023-11-18T05:17:35;22.90;;;14.80;;
38479;SDS011;62333;51.980;5.934;2023-11-18T05:20:05;18.73;;;11.65;;
38479;SDS011;62333;51.980;5.934;2023-11-18T05:22:36;19.73;;;12.02;;
38479;SDS011;62333;51.980;5.934;2023-11-18T05:25:02;23.13;;;13.70;;
38479;SDS011;62333;51.980;5.934;2023-11-18T05:27:32;19.15;;;12.82;;
38479;SDS011;62333;51.980;5.934;2023-11-18T05:29:58;22.02;;;12.50;;
38479;SDS011;62333;51.980;5.934;2023-11-18T05:32:26;21.00;;;13.27;;
38479;SDS011;62333;51.980;5.934;2023-11-18T05:34:58;20.00;;;12.18;;
38479;SDS011;62333;51.980;5.934;2023-11-18T05:37:24;19.95;;;12.05;;
38479;SDS011;62333;51.980;5.934;2023-11-18T05:39:50;19.75;;;12.45;;
38479;SDS011;62333;51.980;5.934;2023-11-18T05:42:24;20.17;;;13.55;;
38479;SDS011;62333;51.980;5.934;2023-11-18T05:44:50;22.92;;;14.60;;
38479;SDS011;62333;51.980;5.934;2023-11-18T05:47:23;21.17;;;14.10;;
38479;SDS011;62333;51.980;5.934;2023-11-18T05:49:48;24.02;;;14.27;;
38479;SDS011;62333;51.980;5.934;2023-11-18T05:52:14;23.95;;;16.02;;
38479;SDS011;62333;51.980;5.934;2023-11-18T05:54:40;23.55;;;15.40;;
38479;SDS011;62333;51.980;5.934;2023-11-18T05:57:05;24.20;;;16.42;;
38479;SDS011;62333;51.980;5.934;2023-11-18T05:59:31;24.45;;;16.67;;
38479;SDS011;62333;51.980;5.934;2023-11-18T06:01:58;24.02;;;13.63;;
38479;SDS011;62333;51.980;5.934;2023-11-18T06:04:23;23.30;;;15.00;;
38479;SDS011;62333;51.980;5.934;2023-11-18T06:06:49;27.50;;;16.80;;
38479;SDS011;62333;51.980;5.934;2023-11-18T06:09:15;25.92;;;15.57;;
38479;SDS011;62333;51.980;5.934;2023-11-18T06:11:49;21.80;;;14.13;;
38479;SDS011;62333;51.980;5.934;2023-11-18T06:14:14;19.80;;;13.18;;
38479;SDS011;62333;51.980;5.934;2023-11-18T06:16:41;20.05;;;13.65;;
38479;SDS011;62333;51.980;5.934;2023-11-18T06:19:07;23.33;;;15.05;;
38479;SDS011;62333;51.980;5.934;2023-11-18T06:21:33;21.38;;;14.32;;
38479;SDS011;62333;51.980;5.934;2023-11-18T06:23:59;19.55;;;12.80;;
38479;SDS011;62333;51.980;5.934;2023-11-18T06:26:26;23.00;;;15.90;;
38479;SDS011;62333;51.980;5.934;2023-11-18T06:28:56;21.63;;;14.40;;
38479;SDS011;62333;51.980;5.934;2023-11-18T06:31:22;23.27;;;14.68;;
38479;SDS011;62333;51.980;5.934;2023-11-18T06:33:49;20.05;;;13.23;;
38479;SDS011;62333;51.980;5.934;2023-11-18T06:38:43;22.67;;;14.52;;
38479;SDS011;62333;51.980;5.934;2023-11-18T06:41:10;20.70;;;14.40;;
38479;SDS011;62333;51.980;5.934;2023-11-18T06:43:37;21.10;;;13.70;;
38479;SDS011;62333;51.980;5.934;2023-11-18T06:46:22;20.80;;;13.82;;
38479;SDS011;62333;51.980;5.934;2023-11-18T06:48:57;21.67;;;12.82;;
38479;SDS011;62333;51.980;5.934;2023-11-18T06:51:24;22.13;;;14.38;;
38479;SDS011;62333;51.980;5.934;2023-11-18T06:53:52;22.38;;;15.10;;
38479;SDS011;62333;51.980;5.934;2023-11-18T06:56:21;21.10;;;12.65;;
38479;SDS011;62333;51.980;5.934;2023-11-18T06:58:50;21.42;;;12.13;;
38479;SDS011;62333;51.980;5.934;2023-11-18T07:01:16;18.13;;;11.38;;
38479;SDS011;62333;51.980;5.934;2023-11-18T07:03:42;19.08;;;13.25;;
38479;SDS011;62333;51.980;5.934;2023-11-18T07:06:08;19.67;;;12.10;;
38479;SDS011;62333;51.980;5.934;2023-11-18T07:08:38;20.08;;;13.32;;
38479;SDS011;62333;51.980;5.934;2023-11-18T07:11:04;17.17;;;10.77;;
38479;SDS011;62333;51.980;5.934;2023-11-18T07:13:31;19.77;;;12.80;;
38479;SDS011;62333;51.980;5.934;2023-11-18T07:15:59;14.35;;;9.77;;
38479;SDS011;62333;51.980;5.934;2023-11-18T07:18:28;17.48;;;10.85;;
38479;SDS011;62333;51.980;5.934;2023-11-18T07:20:56;22.70;;;13.30;;
38479;SDS011;62333;51.980;5.934;2023-11-18T07:23:23;18.67;;;12.27;;
38479;SDS011;62333;51.980;5.934;2023-11-18T07:25:49;17.90;;;10.82;;
38479;SDS011;62333;51.980;5.934;2023-11-18T07:28:14;17.52;;;11.48;;
38479;SDS011;62333;51.980;5.934;2023-11-18T07:30:41;14.65;;;9.70;;
38479;SDS011;62333;51.980;5.934;2023-11-18T07:33:08;14.40;;;11.35;;
38479;SDS011;62333;51.980;5.934;2023-11-18T07:35:34;17.50;;;9.63;;
38479;SDS011;62333;51.980;5.934;2023-11-18T07:38:02;14.55;;;10.07;;
38479;SDS011;62333;51.980;5.934;2023-11-18T07:40:27;16.00;;;9.70;;
38479;SDS011;62333;51.980;5.934;2023-11-18T07:42:56;14.50;;;8.98;;
38479;SDS011;62333;51.980;5.934;2023-11-18T07:45:22;17.73;;;9.82;;
38479;SDS011;62333;51.980;5.934;2023-11-18T07:47:51;13.88;;;9.68;;
38479;SDS011;62333;51.980;5.934;2023-11-18T07:50:19;15.25;;;8.75;;
38479;SDS011;62333;51.980;5.934;2023-11-18T07:52:47;15.95;;;10.23;;
38479;SDS011;62333;51.980;5.934;2023-11-18T07:55:13;16.45;;;9.18;;
38479;SDS011;62333;51.980;5.934;2023-11-18T07:57:40;14.82;;;8.48;;
38479;SDS011;62333;51.980;5.934;2023-11-18T08:00:06;14.05;;;8.90;;
38479;SDS011;62333;51.980;5.934;2023-11-18T08:02:35;14.50;;;8.77;;
38479;SDS011;62333;51.980;5.934;2023-11-18T08:05:01;15.18;;;8.60;;
38479;SDS011;62333;51.980;5.934;2023-11-18T08:07:34;15.07;;;9.73;;
38479;SDS011;62333;51.980;5.934;2023-11-18T08:10:00;14.98;;;8.48;;
38479;SDS011;62333;51.980;5.934;2023-11-18T08:12:32;13.52;;;8.18;;
38479;SDS011;62333;51.980;5.934;2023-11-18T08:14:59;12.65;;;8.35;;
38479;SDS011;62333;51.980;5.934;2023-11-18T08:17:25;14.82;;;9.20;;
38479;SDS011;62333;51.980;5.934;2023-11-18T08:19:52;15.20;;;9.65;;
38479;SDS011;62333;51.980;5.934;2023-11-18T08:22:18;13.00;;;8.20;;
38479;SDS011;62333;51.980;5.934;2023-11-18T08:24:44;17.70;;;10.32;;
38479;SDS011;62333;51.980;5.934;2023-11-18T08:27:11;14.20;;;9.57;;
38479;SDS011;62333;51.980;5.934;2023-11-18T08:29:37;14.95;;;9.73;;
38479;SDS011;62333;51.980;5.934;2023-11-18T08:32:04;17.70;;;9.82;;
38479;SDS011;62333;51.980;5.934;2023-11-18T08:34:31;17.40;;;10.88;;
38479;SDS011;62333;51.980;5.934;2023-11-18T08:36:58;22.60;;;12.70;;
38479;SDS011;62333;51.980;5.934;2023-11-18T08:39:25;18.48;;;11.18;;
38479;SDS011;62333;51.980;5.934;2023-11-18T08:41:51;17.48;;;10.02;;
38479;SDS011;62333;51.980;5.934;2023-11-18T08:44:17;16.63;;;9.90;;
38479;SDS011;62333;51.980;5.934;2023-11-18T08:46:43;19.00;;;10.43;;
38479;SDS011;62333;51.980;5.934;2023-11-18T08:49:09;18.13;;;10.25;;
38479;SDS011;62333;51.980;5.934;2023-11-18T08:51:36;19.67;;;11.07;;
38479;SDS011;62333;51.980;5.934;2023-11-18T08:54:03;18.98;;;10.63;;
38479;SDS011;62333;51.980;5.934;2023-11-18T08:56:47;21.40;;;12.05;;
38479;SDS011;62333;51.980;5.934;2023-11-18T08:59:22;17.85;;;10.40;;
38479;SDS011;62333;51.980;5.934;2023-11-18T09:01:51;17.48;;;11.27;;
38479;SDS011;62333;51.980;5.934;2023-11-18T09:04:23;16.65;;;11.27;;
38479;SDS011;62333;51.980;5.934;2023-11-18T09:06:50;20.13;;;11.32;;
38479;SDS011;62333;51.980;5.934;2023-11-18T09:09:19;20.77;;;10.18;;
38479;SDS011;62333;51.980;5.934;2023-11-18T09:11:51;18.77;;;10.07;;
38479;SDS011;62333;51.980;5.934;2023-11-18T09:14:23;20.33;;;11.57;;
38479;SDS011;62333;51.980;5.934;2023-11-18T09:16:52;16.52;;;8.32;;
38479;SDS011;62333;51.980;5.934;2023-11-18T09:19:23;21.63;;;9.93;;
38479;SDS011;62333;51.980;5.934;2023-11-18T09:21:49;13.65;;;8.65;;
38479;SDS011;62333;51.980;5.934;2023-11-18T09:24:16;19.20;;;9.55;;
38479;SDS011;62333;51.980;5.934;2023-11-18T09:26:45;19.67;;;9.77;;
38479;SDS011;62333;51.980;5.934;2023-11-18T09:29:13;19.50;;;9.88;;
38479;SDS011;62333;51.980;5.934;2023-11-18T09:31:43;18.63;;;10.00;;
38479;SDS011;62333;51.980;5.934;2023-11-18T09:34:13;16.77;;;9.43;;
38479;SDS011;62333;51.980;5.934;2023-11-18T09:36:42;21.05;;;10.88;;
38479;SDS011;62333;51.980;5.934;2023-11-18T09:39:08;21.15;;;12.05;;
38479;SDS011;62333;51.980;5.934;2023-11-18T09:41:54;15.95;;;8.15;;
38479;SDS011;62333;51.980;5.934;2023-11-18T09:44:22;18.75;;;8.85;;
38479;SDS011;62333;51.980;5.934;2023-11-18T09:46:52;16.17;;;8.68;;
38479;SDS011;62333;51.980;5.934;2023-11-18T09:49:31;15.65;;;10.02;;
38479;SDS011;62333;51.980;5.934;2023-11-18T09:52:04;13.40;;;8.80;;
38479;SDS011;62333;51.980;5.934;2023-11-18T09:55:32;14.07;;;7.70;;
38479;SDS011;62333;51.980;5.934;2023-11-18T09:57:39;13.98;;;7.78;;
38479;SDS011;62333;51.980;5.934;2023-11-18T10:00:09;15.43;;;8.15;;
38479;SDS011;62333;51.980;5.934;2023-11-18T10:02:51;17.63;;;8.50;;
38479;SDS011;62333;51.980;5.934;2023-11-18T10:05:19;20.02;;;9.15;;
38479;SDS011;62333;51.980;5.934;2023-11-18T10:07:51;19.88;;;8.68;;
38479;SDS011;62333;51.980;5.934;2023-11-18T10:10:17;15.20;;;8.45;;
38479;SDS011;62333;51.980;5.934;2023-11-18T10:12:47;14.00;;;6.90;;
38479;SDS011;62333;51.980;5.934;2023-11-18T10:15:29;11.68;;;5.97;;
38479;SDS011;62333;51.980;5.934;2023-11-18T10:17:56;13.25;;;7.13;;
38479;SDS011;62333;51.980;5.934;2023-11-18T10:20:45;13.60;;;6.60;;
38479;SDS011;62333;51.980;5.934;2023-11-18T10:23:12;15.25;;;8.43;;
38479;SDS011;62333;51.980;5.934;2023-11-18T10:25:47;11.95;;;6.03;;
38479;SDS011;62333;51.980;5.934;2023-11-18T10:30:57;15.38;;;7.10;;
38479;SDS011;62333;51.980;5.934;2023-11-18T10:33:28;11.55;;;5.00;;
38479;SDS011;62333;51.980;5.934;2023-11-18T10:36:06;12.07;;;6.50;;
38479;SDS011;62333;51.980;5.934;2023-11-18T10:38:47;13.07;;;6.10;;
38479;SDS011;62333;51.980;5.934;2023-11-18T10:41:20;15.75;;;6.90;;
38479;SDS011;62333;51.980;5.934;2023-11-18T10:43:46;14.30;;;6.68;;
38479;SDS011;62333;51.980;5.934;2023-11-18T10:46:15;15.70;;;5.72;;
38479;SDS011;62333;51.980;5.934;2023-11-18T10:48:45;17.98;;;6.57;;
38479;SDS011;62333;51.980;5.934;2023-11-18T10:51:13;9.55;;;4.85;;
38479;SDS011;62333;51.980;5.934;2023-11-18T10:53:41;12.02;;;6.53;;
38479;SDS011;62333;51.980;5.934;2023-11-18T10:56:23;11.30;;;5.88;;
38479;SDS011;62333;51.980;5.934;2023-11-18T10:58:56;14.20;;;5.60;;
38479;SDS011;62333;51.980;5.934;2023-11-18T11:01:42;11.23;;;5.20;;
38479;SDS011;62333;51.980;5.934;2023-11-18T11:04:09;8.75;;;4.88;;
38479;SDS011;62333;51.980;5.934;2023-11-18T11:06:36;9.70;;;4.85;;
38479;SDS011;62333;51.980;5.934;2023-11-18T11:09:11;9.57;;;4.38;;
38479;SDS011;62333;51.980;5.934;2023-11-18T11:11:49;13.63;;;6.03;;
38479;SDS011;62333;51.980;5.934;2023-11-18T11:14:32;12.93;;;5.72;;
38479;SDS011;62333;51.980;5.934;2023-11-18T11:17:05;12.80;;;5.28;;
38479;SDS011;62333;51.980;5.934;2023-11-18T11:22:41;13.60;;;6.70;;
38479;SDS011;62333;51.980;5.934;2023-11-18T11:25:35;12.15;;;5.38;;
38479;SDS011;62333;51.980;5.934;2023-11-18T11:28:21;13.57;;;5.47;;
38479;SDS011;62333;51.980;5.934;2023-11-18T11:31:11;12.13;;;5.72;;
38479;SDS011;62333;51.980;5.934;2023-11-18T11:36:49;8.93;;;4.70;;
38479;SDS011;62333;51.980;5.934;2023-11-18T11:39:16;14.63;;;5.63;;
38479;SDS011;62333;51.980;5.934;2023-11-18T11:41:50;10.07;;;5.25;;
38479;SDS011;62333;51.980;5.934;2023-11-18T11:44:16;13.55;;;5.57;;
38479;SDS011;62333;51.980;5.934;2023-11-18T11:46:45;8.48;;;3.92;;
38479;SDS011;62333;51.980;5.934;2023-11-18T11:49:17;10.70;;;5.15;;
38479;SDS011;62333;51.980;5.934;2023-11-18T11:51:47;13.43;;;5.07;;
38479;SDS011;62333;51.980;5.934;2023-11-18T11:54:26;10.55;;;4.82;;
38479;SDS011;62333;51.980;5.934;2023-11-18T11:56:56;10.23;;;5.30;;
38479;SDS011;62333;51.980;5.934;2023-11-18T11:59:35;16.05;;;6.05;;
38479;SDS011;62333;51.980;5.934;2023-11-18T12:02:21;10.90;;;5.88;;
38479;SDS011;62333;51.980;5.934;2023-11-18T12:04:56;15.40;;;6.68;;
38479;SDS011;62333;51.980;5.934;2023-11-18T12:07:31;10.57;;;5.38;;
38479;SDS011;62333;51.980;5.934;2023-11-18T12:10:07;9.40;;;5.43;;
38479;SDS011;62333;51.980;5.934;2023-11-18T12:12:38;9.70;;;4.53;;
38479;SDS011;62333;51.980;5.934;2023-11-18T12:15:05;6.50;;;3.63;;
38479;SDS011;62333;51.980;5.934;2023-11-18T12:23:19;11.75;;;3.58;;
38479;SDS011;62333;51.980;5.934;2023-11-18T12:25:48;6.63;;;3.42;;
38479;SDS011;62333;51.980;5.934;2023-11-18T12:28:19;11.13;;;4.90;;
38479;SDS011;62333;51.980;5.934;2023-11-18T12:30:47;8.73;;;3.78;;
38479;SDS011;62333;51.980;5.934;2023-11-18T12:42:06;12.30;;;4.28;;
38479;SDS011;62333;51.980;5.934;2023-11-18T12:47:05;12.30;;;4.85;;
38479;SDS011;62333;51.980;5.934;2023-11-18T12:49:43;8.68;;;3.45;;
38479;SDS011;62333;51.980;5.934;2023-11-18T12:52:10;11.65;;;4.90;;
38479;SDS011;62333;51.980;5.934;2023-11-18T12:54:39;8.48;;;4.43;;
38479;SDS011;62333;51.980;5.934;2023-11-18T12:57:11;5.95;;;2.70;;
38479;SDS011;62333;51.980;5.934;2023-11-18T12:59:40;12.63;;;3.67;;
38479;SDS011;62333;51.980;5.934;2023-11-18T13:02:09;11.57;;;4.88;;
38479;SDS011;62333;51.980;5.934;2023-11-18T13:04:44;7.28;;;3.83;;
38479;SDS011;62333;51.980;5.934;2023-11-18T13:07:14;7.70;;;3.03;;
38479;SDS011;62333;51.980;5.934;2023-11-18T13:09:44;6.60;;;2.47;;
38479;SDS011;62333;51.980;5.934;2023-11-18T13:12:11;5.97;;;3.00;;
38479;SDS011;62333;51.980;5.934;2023-11-18T13:14:40;7.30;;;2.55;;
38479;SDS011;62333;51.980;5.934;2023-11-18T13:17:11;9.35;;;3.53;;
38479;SDS011;62333;51.980;5.934;2023-11-18T13:19:41;7.75;;;2.75;;
38479;SDS011;62333;51.980;5.934;2023-11-18T13:22:08;8.18;;;3.30;;
38479;SDS011;62333;51.980;5.934;2023-11-18T13:24:38;9.57;;;4.07;;
38479;SDS011;62333;51.980;5.934;2023-11-18T13:27:10;5.45;;;2.92;;
38479;SDS011;62333;51.980;5.934;2023-11-18T13:29:39;7.32;;;2.38;;
38479;SDS011;62333;51.980;5.934;2023-11-18T13:32:10;8.52;;;3.63;;
38479;SDS011;62333;51.980;5.934;2023-11-18T13:34:37;7.82;;;2.83;;
38479;SDS011;62333;51.980;5.934;2023-11-18T13:37:06;8.23;;;2.70;;
38479;SDS011;62333;51.980;5.934;2023-11-18T13:39:33;6.57;;;2.22;;
38479;SDS011;62333;51.980;5.934;2023-11-18T13:42:17;8.40;;;2.40;;
38479;SDS011;62333;51.980;5.934;2023-11-18T13:44:48;10.27;;;3.38;;
38479;SDS011;62333;51.980;5.934;2023-11-18T13:47:17;6.18;;;2.25;;
38479;SDS011;62333;51.980;5.934;2023-11-18T13:49:43;6.22;;;2.03;;
38479;SDS011;62333;51.980;5.934;2023-11-18T13:52:10;7.47;;;2.80;;
38479;SDS011;62333;51.980;5.934;2023-11-18T13:54:40;6.43;;;2.20;;
38479;SDS011;62333;51.980;5.934;2023-11-18T13:57:09;5.25;;;2.05;;
38479;SDS011;62333;51.980;5.934;2023-11-18T13:59:36;4.68;;;1.75;;
38479;SDS011;62333;51.980;5.934;2023-11-18T14:02:03;3.78;;;1.52;;
38479;SDS011;62333;51.980;5.934;2023-11-18T14:04:30;8.90;;;2.15;;
38479;SDS011;62333;51.980;5.934;2023-11-18T14:06:58;7.45;;;2.33;;
38479;SDS011;62333;51.980;5.934;2023-11-18T14:09:30;7.88;;;1.90;;
38479;SDS011;62333;51.980;5.934;2023-11-18T14:12:00;9.73;;;1.42;;
38479;SDS011;62333;51.980;5.934;2023-11-18T14:14:27;7.57;;;2.25;;
38479;SDS011;62333;51.980;5.934;2023-11-18T14:16:53;6.53;;;2.42;;
38479;SDS011;62333;51.980;5.934;2023-11-18T14:19:23;3.83;;;1.80;;
38479;SDS011;62333;51.980;5.934;2023-11-18T14:21:50;4.10;;;1.50;;
38479;SDS011;62333;51.980;5.934;2023-11-18T14:24:16;3.47;;;1.13;;
38479;SDS011;62333;51.980;5.934;2023-11-18T14:26:43;4.80;;;1.40;;
38479;SDS011;62333;51.980;5.934;2023-11-18T14:29:09;3.45;;;1.23;;
38479;SDS011;62333;51.980;5.934;2023-11-18T14:31:36;2.33;;;0.75;;
38479;SDS011;62333;51.980;5.934;2023-11-18T14:34:02;2.75;;;0.90;;
38479;SDS011;62333;51.980;5.934;2023-11-18T14:36:29;3.95;;;0.93;;
38479;SDS011;62333;51.980;5.934;2023-11-18T14:38:55;2.15;;;0.80;;
38479;SDS011;62333;51.980;5.934;2023-11-18T14:41:21;4.45;;;0.90;;
38479;SDS011;62333;51.980;5.934;2023-11-18T14:43:51;2.20;;;0.80;;
38479;SDS011;62333;51.980;5.934;2023-11-18T14:46:19;1.75;;;0.80;;
38479;SDS011;62333;51.980;5.934;2023-11-18T14:48:45;2.25;;;0.70;;
38479;SDS011;62333;51.980;5.934;2023-11-18T14:51:11;2.13;;;0.95;;
38479;SDS011;62333;51.980;5.934;2023-11-18T14:53:37;2.15;;;1.20;;
38479;SDS011;62333;51.980;5.934;2023-11-18T14:56:03;1.27;;;0.50;;
38479;SDS011;62333;51.980;5.934;2023-11-18T14:58:34;2.03;;;0.60;;
38479;SDS011;62333;51.980;5.934;2023-11-18T15:01:02;2.85;;;0.57;;
38479;SDS011;62333;51.980;5.934;2023-11-18T15:03:28;2.45;;;0.60;;
38479;SDS011;62333;51.980;5.934;2023-11-18T15:05:56;3.13;;;0.90;;
38479;SDS011;62333;51.980;5.934;2023-11-18T15:08:21;2.35;;;1.00;;
38479;SDS011;62333;51.980;5.934;2023-11-18T15:10:47;2.45;;;0.95;;